Folsom, California
Current Conditions -  °F | °C
As of 7:50 AM on Saturday 25 Oct 2014 (Local Time) from KMHR Reporting Station
Broken Clouds Broken Clouds  
Wind Chill: 61°   Ceiling: 4000
Heat Index: 61°   Visibility: 10mi
Dew Point: 52°   Wind: 12mph
Humidity: 72%   Direction: 240°WSW
Pressure: 29.98"   Gusts: NA
Location:  38.68°N, 121.16°W
Report Text: KMHR 251450Z 24010KT 10SM BKN040 16/11 A2998 RMK PRESRR
Loading
Personal Weather Stations






























Interactive Weather Map
Tropical Storm Tracking
New forecast layout! Learn more

10-Day Weather Forecast

Advertisements
Track Severe Weather on mobile